createdAt,value
2022-08-21T00:00:26.478Z,7.03
2022-08-21T00:03:09.751Z,6.32
2022-08-21T00:05:39.458Z,7.15
2022-08-21T00:08:06.868Z,6.55
2022-08-21T00:10:34.188Z,7.03
2022-08-21T00:13:03.694Z,7.18
2022-08-21T00:15:32.761Z,6.85
2022-08-21T00:18:00.013Z,6.82
2022-08-21T00:20:27.995Z,8.07
2022-08-21T00:22:55.467Z,6.57
2022-08-21T00:25:26.196Z,6.90
2022-08-21T00:27:55.123Z,7.35
2022-08-21T00:30:23.803Z,7.20
2022-08-21T00:32:52.288Z,7.25
2022-08-21T00:35:24.213Z,6.63
2022-08-21T00:37:51.439Z,7.57
2022-08-21T00:40:23.832Z,7.07
2022-08-21T00:42:53.218Z,7.57
2022-08-21T00:45:23.329Z,7.50
2022-08-21T00:47:52.234Z,7.20
2022-08-21T00:50:21.511Z,7.80
2022-08-21T00:52:52.464Z,7.65
2022-08-21T00:55:21.768Z,7.78
2022-08-21T00:57:53.659Z,7.50
2022-08-21T01:00:26.089Z,8.43
2022-08-21T01:02:53.691Z,8.03
2022-08-21T01:05:22.154Z,7.57
2022-08-21T01:07:49.569Z,7.93
2022-08-21T01:10:24.468Z,7.85
2022-08-21T01:12:53.734Z,8.25
2022-08-21T01:15:23.223Z,8.02
2022-08-21T01:17:51.238Z,8.20
2022-08-21T01:20:18.611Z,8.68
2022-08-21T01:22:46.211Z,8.05
2022-08-21T01:25:16.925Z,7.53
2022-08-21T01:27:44.945Z,8.68
2022-08-21T01:30:22.902Z,8.48
2022-08-21T01:32:52.069Z,9.18
2022-08-21T01:35:20.401Z,8.07
2022-08-21T01:37:49.272Z,8.40
2022-08-21T01:40:17.655Z,8.45
2022-08-21T01:42:46.589Z,9.23
2022-08-21T01:45:14.189Z,8.38
2022-08-21T01:47:41.582Z,8.30
2022-08-21T01:50:11.398Z,8.50
2022-08-21T01:52:38.759Z,8.80
2022-08-21T01:55:07.770Z,8.55
2022-08-21T01:57:35.676Z,8.82
2022-08-21T02:00:06.724Z,9.77
2022-08-21T02:02:41.416Z,8.75
2022-08-21T02:05:10.366Z,8.75
2022-08-21T02:07:51.565Z,9.25
2022-08-21T02:10:24.390Z,9.27
2022-08-21T02:12:51.667Z,9.23
2022-08-21T02:15:19.879Z,10.30
2022-08-21T02:17:52.931Z,9.57
2022-08-21T02:20:24.350Z,10.10
2022-08-21T02:22:52.283Z,10.20
2022-08-21T02:25:20.624Z,9.88
2022-08-21T02:27:48.839Z,10.50
2022-08-21T02:30:23.014Z,9.77
2022-08-21T02:32:50.320Z,9.98
2022-08-21T02:35:17.815Z,9.50
2022-08-21T02:37:50.154Z,9.88
2022-08-21T02:40:19.535Z,9.73
2022-08-21T02:42:46.985Z,9.77
2022-08-21T02:45:15.177Z,9.98
2022-08-21T02:47:51.482Z,10.75
2022-08-21T02:50:24.752Z,10.23
2022-08-21T02:52:55.462Z,10.85
2022-08-21T02:55:27.293Z,10.07
2022-08-21T02:57:55.421Z,9.82
2022-08-21T03:00:24.365Z,10.65
2022-08-21T03:02:54.493Z,10.02
2022-08-21T03:05:21.959Z,10.35
2022-08-21T03:07:49.506Z,10.20
2022-08-21T03:10:17.156Z,10.80
2022-08-21T03:12:44.628Z,10.52
2022-08-21T03:15:15.404Z,10.30
2022-08-21T03:17:43.122Z,9.93
2022-08-21T03:20:11.047Z,10.48
2022-08-21T03:22:38.317Z,10.65
2022-08-21T03:25:06.657Z,11.05
2022-08-21T03:27:35.043Z,11.05
2022-08-21T03:30:04.636Z,11.25
2022-08-21T03:32:32.539Z,10.75
2022-08-21T03:35:01.214Z,10.77
2022-08-21T03:37:28.832Z,11.48
2022-08-21T03:39:56.567Z,10.30
2022-08-21T03:42:24.246Z,11.27
2022-08-21T03:44:52.062Z,10.23
2022-08-21T03:47:19.754Z,11.93
2022-08-21T03:49:47.068Z,11.20
2022-08-21T03:52:14.408Z,11.00
2022-08-21T03:54:41.942Z,10.85
2022-08-21T03:57:10.469Z,10.48
2022-08-21T03:59:38.599Z,10.73
2022-08-21T04:02:07.469Z,11.18
2022-08-21T04:04:35.005Z,10.70
2022-08-21T04:07:02.485Z,10.85
2022-08-21T04:09:31.094Z,10.68
2022-08-21T04:11:59.623Z,10.80
2022-08-21T04:14:27.170Z,11.02
2022-08-21T04:16:54.688Z,10.25
2022-08-21T04:19:22.132Z,9.63
2022-08-21T04:21:50.722Z,10.73
2022-08-21T04:24:20.402Z,9.35
2022-08-21T04:26:48.165Z,9.15
2022-08-21T04:29:15.322Z,9.48
2022-08-21T04:31:44.613Z,8.88
2022-08-21T04:34:11.898Z,9.52
2022-08-21T04:36:39.200Z,9.10
2022-08-21T04:39:06.847Z,9.07
2022-08-21T04:41:37.696Z,8.50
2022-08-21T04:44:05.820Z,9.13
2022-08-21T04:46:33.201Z,8.60
2022-08-21T04:49:00.505Z,8.68
2022-08-21T04:51:34.285Z,8.50
2022-08-21T04:54:04.759Z,8.25
2022-08-21T04:56:48.983Z,8.50
2022-08-21T04:59:20.415Z,8.20
2022-08-21T05:01:48.168Z,8.30
2022-08-21T05:04:18.566Z,7.88
2022-08-21T05:06:48.159Z,8.90
2022-08-21T05:09:19.824Z,7.72
2022-08-21T05:11:49.109Z,7.80
2022-08-21T05:14:17.049Z,8.02
2022-08-21T05:16:45.071Z,7.38
2022-08-21T05:19:13.613Z,7.32
2022-08-21T05:21:43.670Z,7.60
2022-08-21T05:24:12.416Z,7.35
2022-08-21T05:26:46.124Z,6.60
2022-08-21T05:29:19.072Z,7.03
2022-08-21T05:31:47.722Z,6.82
2022-08-21T05:34:19.276Z,7.43
2022-08-21T05:36:47.771Z,7.35
2022-08-21T05:39:15.845Z,6.68
2022-08-21T05:41:43.193Z,6.75
2022-08-21T05:44:11.463Z,6.70
2022-08-21T05:46:39.240Z,6.88
2022-08-21T05:49:06.473Z,6.65
2022-08-21T05:51:34.031Z,5.93
2022-08-21T05:54:01.550Z,6.13
2022-08-21T05:56:28.961Z,6.32
2022-08-21T05:58:56.742Z,6.25
2022-08-21T06:01:24.103Z,5.95
2022-08-21T06:03:51.373Z,6.25
2022-08-21T06:06:19.312Z,5.93
2022-08-21T06:08:46.757Z,6.55
2022-08-21T06:11:14.029Z,6.88
2022-08-21T06:13:42.449Z,6.07
2022-08-21T06:16:14.931Z,5.97
2022-08-21T06:18:45.709Z,6.30
2022-08-21T06:21:13.966Z,6.65
2022-08-21T06:23:42.190Z,6.25
2022-08-21T06:26:10.667Z,6.38
2022-08-21T06:28:38.326Z,5.80
2022-08-21T06:31:25.116Z,6.30
2022-08-21T06:33:53.222Z,5.60
2022-08-21T06:36:21.893Z,6.25
2022-08-21T06:38:51.816Z,6.15
2022-08-21T06:41:23.868Z,6.30
2022-08-21T06:43:54.678Z,6.38
2022-08-21T06:46:22.857Z,5.90
2022-08-21T06:48:50.528Z,5.78
2022-08-21T06:51:17.845Z,5.65
2022-08-21T06:53:45.524Z,5.78
2022-08-21T06:56:13.059Z,6.45
2022-08-21T06:58:40.451Z,5.88
2022-08-21T07:01:08.220Z,5.55
2022-08-21T07:03:42.188Z,5.93
2022-08-21T07:06:10.900Z,5.38
2022-08-21T07:08:38.550Z,5.80
2022-08-21T07:11:12.793Z,5.80
2022-08-21T07:13:40.239Z,6.00
2022-08-21T07:16:07.613Z,5.63
2022-08-21T07:18:35.157Z,5.80
2022-08-21T07:21:04.738Z,5.57
2022-08-21T07:23:35.356Z,5.93
2022-08-21T07:26:02.782Z,5.13
2022-08-21T07:28:31.994Z,4.90
2022-08-21T07:31:00.704Z,5.53
2022-08-21T07:33:30.808Z,4.65
2022-08-21T07:35:59.160Z,5.90
2022-08-21T07:38:26.715Z,5.18
2022-08-21T07:40:56.396Z,5.38
2022-08-21T07:43:23.755Z,4.85
2022-08-21T07:45:51.405Z,5.50
2022-08-21T07:48:18.799Z,5.40
2022-08-21T07:50:46.513Z,5.25
2022-08-21T07:53:14.049Z,5.60
2022-08-21T07:55:41.659Z,5.70
2022-08-21T07:58:09.353Z,5.93
2022-08-21T08:00:36.795Z,5.32
2022-08-21T08:03:04.236Z,5.32
2022-08-21T08:05:32.913Z,5.57
2022-08-21T08:08:00.271Z,5.35
2022-08-21T08:10:28.247Z,5.40
2022-08-21T08:12:56.210Z,5.43
2022-08-21T08:15:26.752Z,5.03
2022-08-21T08:17:55.403Z,5.20
2022-08-21T08:20:23.880Z,5.03
2022-08-21T08:22:51.325Z,5.00
2022-08-21T08:25:19.702Z,5.57
2022-08-21T08:27:47.296Z,5.07
2022-08-21T08:30:16.617Z,5.10
2022-08-21T08:32:43.927Z,5.82
2022-08-21T08:35:12.755Z,4.97
2022-08-21T08:37:46.728Z,5.80
2022-08-21T08:40:43.103Z,5.55
2022-08-21T08:43:14.429Z,5.15
2022-08-21T08:45:47.692Z,4.90
2022-08-21T08:50:51.052Z,5.45
2022-08-21T08:53:24.432Z,5.32
2022-08-21T08:55:53.973Z,5.22
2022-08-21T08:58:40.921Z,5.47
2022-08-21T09:01:17.528Z,5.40
2022-08-21T09:03:50.468Z,5.50
2022-08-21T09:06:34.626Z,5.18
2022-08-21T09:09:27.852Z,4.45
2022-08-21T09:12:29.902Z,5.28
2022-08-21T09:15:23.069Z,5.50
2022-08-21T09:18:15.828Z,5.47
2022-08-21T09:21:05.313Z,4.78
2022-08-21T09:23:52.474Z,5.22
2022-08-21T09:26:26.458Z,4.82
2022-08-21T09:28:56.558Z,4.80
2022-08-21T09:31:30.286Z,4.60
2022-08-21T09:34:10.720Z,4.60
2022-08-21T09:36:46.383Z,4.40
2022-08-21T09:39:23.581Z,4.05
2022-08-21T09:42:02.249Z,4.30
2022-08-21T09:44:32.794Z,4.28
2022-08-21T09:47:00.342Z,3.97
2022-08-21T09:49:32.330Z,3.95
2022-08-21T09:52:00.616Z,4.10
2022-08-21T09:54:32.453Z,4.05
2022-08-21T09:57:33.708Z,3.83
2022-08-21T10:00:39.777Z,4.43
2022-08-21T10:03:21.832Z,4.57
2022-08-21T10:05:57.565Z,4.25
2022-08-21T10:08:27.891Z,3.75
2022-08-21T10:11:11.969Z,4.00
2022-08-21T10:13:54.537Z,4.28
2022-08-21T10:16:53.079Z,4.32
2022-08-21T10:19:48.340Z,4.13
2022-08-21T10:22:15.770Z,3.70
2022-08-21T10:24:50.449Z,3.72
2022-08-21T10:27:36.403Z,3.80
2022-08-21T10:30:16.287Z,3.85
2022-08-21T10:33:22.747Z,3.47
2022-08-21T10:35:59.729Z,3.80
2022-08-21T10:39:02.325Z,3.72
2022-08-21T10:42:08.513Z,3.47
2022-08-21T10:44:56.468Z,3.85
2022-08-21T10:47:36.045Z,3.67
2022-08-21T10:50:14.216Z,4.10
2022-08-21T10:53:04.761Z,3.63
2022-08-21T10:55:42.048Z,3.63
2022-08-21T10:58:12.603Z,3.65
2022-08-21T11:00:49.034Z,3.83
2022-08-21T11:03:39.053Z,3.42
2022-08-21T11:06:14.928Z,3.97
2022-08-21T11:08:50.752Z,4.03
2022-08-21T11:11:23.913Z,3.08
2022-08-21T11:13:59.746Z,3.65
2022-08-21T11:17:02.578Z,3.47
2022-08-21T11:19:34.740Z,3.35
2022-08-21T11:22:29.438Z,3.47
2022-08-21T11:25:18.554Z,3.45
2022-08-21T11:28:10.935Z,3.55
2022-08-21T11:31:04.270Z,3.72
2022-08-21T11:33:40.021Z,3.30
2022-08-21T11:36:27.459Z,3.50
2022-08-21T11:39:15.106Z,3.22
2022-08-21T11:41:50.673Z,3.30
2022-08-21T11:44:20.919Z,3.45
2022-08-21T11:47:10.384Z,3.20
2022-08-21T11:49:43.881Z,3.10
2022-08-21T11:52:37.483Z,3.25
2022-08-21T11:55:31.940Z,3.45
2022-08-21T11:58:05.073Z,3.72
2022-08-21T12:00:50.136Z,3.90
2022-08-21T12:03:23.928Z,3.60
2022-08-21T12:05:57.514Z,3.58
2022-08-21T12:08:35.108Z,3.90
2022-08-21T12:11:18.294Z,3.60
2022-08-21T12:13:59.696Z,3.38
2022-08-21T12:16:50.425Z,3.40
2022-08-21T12:19:20.563Z,3.70
2022-08-21T12:21:53.100Z,3.58
2022-08-21T12:24:29.436Z,3.65
2022-08-21T12:27:00.522Z,3.65
2022-08-21T12:29:32.694Z,3.63
2022-08-21T12:32:03.764Z,3.58
2022-08-21T12:35:04.069Z,4.00
2022-08-21T12:37:57.769Z,3.50
2022-08-21T12:40:31.161Z,3.53
2022-08-21T12:43:00.941Z,3.85
2022-08-21T12:45:34.860Z,3.60
2022-08-21T12:48:24.883Z,3.70
2022-08-21T12:50:57.584Z,4.00
2022-08-21T12:53:35.168Z,3.35
2022-08-21T12:56:05.174Z,3.53
2022-08-21T12:58:32.954Z,3.63
2022-08-21T13:01:21.777Z,3.55
2022-08-21T13:03:57.232Z,3.53
2022-08-21T13:06:38.430Z,4.13
2022-08-21T13:09:08.401Z,3.80
2022-08-21T13:11:36.151Z,3.90
2022-08-21T13:14:06.090Z,4.20
2022-08-21T13:16:36.220Z,3.55
2022-08-21T13:19:07.868Z,3.70
2022-08-21T13:21:41.724Z,3.75
2022-08-21T13:24:43.570Z,3.65
2022-08-21T13:27:29.939Z,4.15
2022-08-21T13:30:04.258Z,3.97
2022-08-21T13:32:33.160Z,3.60
2022-08-21T13:35:08.216Z,3.35
2022-08-21T13:37:36.770Z,4.15
2022-08-21T13:40:08.967Z,3.60
2022-08-21T13:42:36.888Z,3.88
2022-08-21T13:45:04.336Z,3.78
2022-08-21T13:47:31.574Z,3.63
2022-08-21T13:49:59.450Z,3.90
2022-08-21T13:52:28.085Z,3.72
2022-08-21T13:54:58.860Z,3.90
2022-08-21T13:57:32.159Z,3.40
2022-08-21T14:00:28.813Z,4.10
2022-08-21T14:03:04.283Z,3.85
2022-08-21T14:05:34.952Z,4.00
2022-08-21T14:08:07.242Z,3.90
2022-08-21T14:10:37.989Z,3.83
2022-08-21T14:13:08.270Z,3.80
2022-08-21T14:15:36.660Z,3.78
2022-08-21T14:18:15.319Z,3.50
2022-08-21T14:20:43.610Z,3.70
2022-08-21T14:23:11.109Z,3.35
2022-08-21T14:25:46.122Z,3.50
2022-08-21T14:28:33.338Z,3.58
2022-08-21T14:31:21.411Z,3.63
2022-08-21T14:33:49.703Z,3.30
2022-08-21T14:36:16.890Z,3.70
2022-08-21T14:38:44.293Z,5.70
2022-08-21T14:41:22.308Z,3.50
2022-08-21T14:44:04.332Z,4.28
2022-08-21T14:46:45.821Z,3.80
2022-08-21T14:49:23.892Z,3.13
2022-08-21T14:51:57.802Z,3.85
2022-08-21T14:54:31.707Z,2.95
2022-08-21T14:57:02.429Z,3.08
2022-08-21T14:59:30.871Z,3.00
2022-08-21T15:01:58.037Z,2.83
2022-08-21T15:04:25.986Z,2.97
2022-08-21T15:06:53.238Z,3.38
2022-08-21T15:09:20.651Z,3.42
2022-08-21T15:11:48.157Z,3.42
2022-08-21T15:14:22.331Z,2.90
2022-08-21T15:16:50.896Z,3.35
2022-08-21T15:19:18.235Z,3.45
2022-08-21T15:21:45.475Z,3.30
2022-08-21T15:24:13.131Z,3.50
2022-08-21T15:26:40.341Z,5.70
2022-08-21T15:29:08.709Z,4.93
2022-08-21T15:31:37.425Z,3.63
2022-08-21T15:34:04.684Z,5.50
2022-08-21T15:36:32.068Z,3.80
2022-08-21T15:38:59.484Z,3.28
2022-08-21T15:41:26.585Z,3.60
2022-08-21T15:43:54.562Z,3.28
2022-08-21T15:46:22.569Z,3.78
2022-08-21T15:48:50.023Z,3.47
2022-08-21T15:51:17.885Z,3.60
2022-08-21T15:53:45.890Z,3.78
2022-08-21T15:56:23.585Z,3.28
2022-08-21T15:58:52.527Z,3.83
2022-08-21T16:01:21.332Z,3.55
2022-08-21T16:03:50.625Z,3.47
2022-08-21T16:06:18.175Z,3.80
2022-08-21T16:09:05.494Z,4.00
2022-08-21T16:11:33.408Z,3.38
2022-08-21T16:14:00.811Z,3.53
2022-08-21T16:16:28.893Z,3.67
2022-08-21T16:18:59.185Z,4.40
2022-08-21T16:21:26.471Z,4.03
2022-08-21T16:23:53.800Z,3.55
2022-08-21T16:26:23.740Z,5.35
2022-08-21T16:28:53.812Z,4.20
2022-08-21T16:31:24.601Z,6.25
2022-08-21T16:33:57.098Z,4.20
2022-08-21T16:36:26.676Z,4.32
2022-08-21T16:38:56.232Z,4.20
2022-08-21T16:41:25.726Z,4.65
2022-08-21T16:43:53.153Z,3.78
2022-08-21T16:46:22.067Z,32.50
2022-08-21T16:48:50.220Z,5.60
2022-08-21T16:51:17.911Z,16.50
2022-08-21T16:53:45.578Z,18.45
2022-08-21T16:56:14.139Z,9.65
2022-08-21T16:58:45.873Z,5.38
2022-08-21T17:01:15.334Z,4.70
2022-08-21T17:03:45.785Z,4.45
2022-08-21T17:06:14.939Z,4.70
2022-08-21T17:08:42.369Z,4.85
2022-08-21T17:11:38.003Z,5.45
2022-08-21T17:14:14.591Z,5.20
2022-08-21T17:16:45.424Z,4.38
2022-08-21T17:19:13.412Z,4.38
2022-08-21T17:21:40.797Z,7.45
2022-08-21T17:24:08.174Z,5.45
2022-08-21T17:26:36.769Z,38.47
2022-08-21T17:29:09.699Z,7.50
2022-08-21T17:31:39.539Z,37.35
2022-08-21T17:34:06.920Z,22.38
2022-08-21T17:36:34.159Z,10.43
2022-08-21T17:39:02.028Z,9.52
2022-08-21T17:41:29.432Z,7.30
2022-08-21T17:43:56.847Z,14.48
2022-08-21T17:46:27.821Z,16.27
2022-08-21T17:48:56.111Z,11.50
2022-08-21T17:51:23.422Z,11.65
2022-08-21T17:53:50.840Z,7.28
2022-08-21T17:56:19.201Z,6.05
2022-08-21T17:58:49.817Z,6.35
2022-08-21T18:01:18.486Z,5.15
2022-08-21T18:03:47.301Z,5.13
2022-08-21T18:06:17.648Z,5.45
2022-08-21T18:08:46.663Z,5.68
2022-08-21T18:11:24.046Z,6.03
2022-08-21T18:13:53.100Z,5.50
2022-08-21T18:16:21.077Z,5.72
2022-08-21T18:18:49.116Z,5.78
2022-08-21T18:21:16.918Z,5.47
2022-08-21T18:23:45.044Z,5.53
2022-08-21T18:26:21.027Z,5.13
2022-08-21T18:28:48.765Z,5.68
2022-08-21T18:31:15.832Z,5.90
2022-08-21T18:33:52.885Z,5.93
2022-08-21T18:39:13.648Z,5.38
2022-08-21T18:41:46.514Z,5.68
2022-08-21T18:44:15.495Z,5.57
2022-08-21T18:46:50.653Z,6.13
2022-08-21T18:49:18.479Z,5.72
2022-08-21T18:51:46.690Z,6.20
2022-08-21T18:54:15.104Z,6.25
2022-08-21T18:56:43.279Z,5.57
2022-08-21T18:59:12.443Z,6.20
2022-08-21T19:01:41.239Z,6.30
2022-08-21T19:04:17.978Z,6.18
2022-08-21T19:06:52.943Z,6.13
2022-08-21T19:09:20.702Z,6.93
2022-08-21T19:11:51.889Z,6.43
2022-08-21T19:14:19.198Z,6.95
2022-08-21T19:16:50.503Z,6.10
2022-08-21T19:19:18.384Z,7.70
2022-08-21T19:21:49.446Z,6.88
2022-08-21T19:24:18.249Z,7.10
2022-08-21T19:26:50.781Z,7.35
2022-08-21T19:32:12.216Z,7.95
2022-08-21T19:34:40.209Z,7.53
2022-08-21T19:37:08.500Z,7.63
2022-08-21T19:39:42.368Z,7.47
2022-08-21T19:42:14.663Z,7.82
2022-08-21T19:44:43.425Z,7.55
2022-08-21T19:47:19.016Z,7.78
2022-08-21T19:49:53.047Z,7.68
2022-08-21T19:52:20.862Z,7.88
2022-08-21T19:54:50.030Z,8.45
2022-08-21T19:57:17.676Z,7.95
2022-08-21T19:59:45.698Z,7.68
2022-08-21T20:02:14.889Z,9.85
2022-08-21T20:04:53.528Z,7.55
2022-08-21T20:07:26.797Z,8.10
2022-08-21T20:09:55.597Z,8.20
2022-08-21T20:12:24.415Z,8.70
2022-08-21T20:14:52.061Z,8.93
2022-08-21T20:17:20.675Z,8.55
2022-08-21T20:19:53.970Z,8.65
2022-08-21T20:22:24.034Z,8.65
2022-08-21T20:24:52.167Z,7.70
2022-08-21T20:27:23.398Z,7.68
2022-08-21T20:29:50.924Z,8.57
2022-08-21T20:32:18.814Z,8.50
2022-08-21T20:34:46.430Z,8.73
2022-08-21T20:37:22.202Z,8.73
2022-08-21T20:40:10.902Z,9.07
2022-08-21T20:45:32.318Z,8.82
2022-08-21T20:48:05.237Z,8.20
2022-08-21T20:50:37.029Z,9.07
2022-08-21T20:53:43.473Z,9.00
2022-08-21T20:56:49.805Z,9.65
2022-08-21T20:59:44.250Z,8.07
2022-08-21T21:02:21.200Z,8.13
2022-08-21T21:05:07.951Z,9.07
2022-08-21T21:07:56.439Z,8.93
2022-08-21T21:11:01.591Z,9.38
2022-08-21T21:13:59.917Z,9.15
2022-08-21T21:16:58.744Z,8.75
2022-08-21T21:19:37.866Z,9.73
2022-08-21T21:22:11.779Z,10.57
2022-08-21T21:24:47.114Z,11.05
2022-08-21T21:27:22.995Z,11.07
2022-08-21T21:29:55.765Z,10.77
2022-08-21T21:32:24.371Z,11.38
2022-08-21T21:34:51.951Z,11.40
2022-08-21T21:37:34.004Z,10.25
2022-08-21T21:40:40.192Z,10.50
2022-08-21T21:43:42.312Z,10.50
2022-08-21T21:46:30.191Z,10.38
2022-08-21T21:49:11.506Z,10.70
2022-08-21T21:51:42.155Z,10.52
2022-08-21T21:54:39.703Z,11.00
2022-08-21T21:57:58.610Z,10.73
2022-08-21T22:00:29.082Z,11.23
2022-08-21T22:03:08.078Z,11.95
2022-08-21T22:05:43.575Z,11.60
2022-08-21T22:08:34.676Z,10.43
2022-08-21T22:14:09.997Z,10.38
2022-08-21T22:19:29.501Z,12.25
2022-08-21T22:22:17.105Z,12.00
2022-08-21T22:24:49.441Z,11.57
2022-08-21T22:27:22.837Z,12.02
2022-08-21T22:29:54.120Z,12.25
2022-08-21T22:32:37.690Z,11.27
2022-08-21T22:35:21.104Z,11.45
2022-08-21T22:40:36.391Z,11.70
2022-08-21T22:43:10.226Z,11.77
2022-08-21T22:46:09.396Z,11.57
2022-08-21T22:51:36.904Z,13.30
2022-08-21T22:54:16.576Z,12.95
2022-08-21T22:56:46.456Z,12.00
2022-08-21T22:59:29.447Z,12.43
2022-08-21T23:02:20.043Z,11.13
2022-08-21T23:04:50.170Z,11.73
2022-08-21T23:07:43.637Z,11.52
2022-08-21T23:10:31.584Z,11.45
2022-08-21T23:16:15.898Z,11.63
2022-08-21T23:19:02.602Z,11.65
2022-08-21T23:21:42.385Z,11.05
2022-08-21T23:24:38.999Z,13.00
2022-08-21T23:27:35.989Z,10.75
2022-08-21T23:30:18.553Z,10.65
2022-08-21T23:33:17.615Z,11.30
2022-08-21T23:36:13.534Z,11.80
2022-08-21T23:38:44.175Z,11.88
2022-08-21T23:41:18.994Z,12.23
2022-08-21T23:44:31.503Z,12.40
2022-08-21T23:47:10.160Z,11.48
2022-08-21T23:53:01.715Z,12.63
2022-08-21T23:55:58.734Z,12.48
2022-08-21T23:59:03.613Z,11.95
